Time;durP1;ratioP1;P1;durP2;ratioP2;P2;SDS_P1;SDS_P2;PMS_P1;PMS_P2;Temp;Humidity;BMP_temperature;BMP_pressure;BME280_temperature;BME280_humidity;BME280_pressure;Samples;Min_cycle;Max_cycle;Signal;HPM_P1;HPM_P2
2022/11/07 00:02:13;;;;;;;7.07;2.90;;;10.50;99.90;;;;;;5030316;28;20053;-72
2022/11/07 00:04:39;;;;;;;5.28;2.60;;;10.50;99.90;;;;;;5028471;28;20056;-73
2022/11/07 00:07:05;;;;;;;9.38;3.45;;;10.60;99.90;;;;;;5037237;28;20046;-75
2022/11/07 00:09:30;;;;;;;;;;;10.50;99.90;;;;;;5031117;28;20041;-73
2022/11/07 00:11:56;;;;;;;5.85;2.78;;;10.60;99.90;;;;;;5030414;28;19944;-71
2022/11/07 00:14:22;;;;;;;8.23;3.10;;;10.50;99.90;;;;;;5029282;28;20117;-72
2022/11/07 00:16:48;;;;;;;4.20;2.65;;;10.60;99.90;;;;;;5030473;28;20049;-71
2022/11/07 00:19:17;;;;;;;6.10;2.92;;;10.70;99.90;;;;;;5028393;28;20095;-72
2022/11/07 00:21:43;;;;;;;6.28;2.95;;;10.70;99.90;;;;;;5029566;28;20463;-71
2022/11/07 00:24:09;;;;;;;;;;;10.80;99.90;;;;;;5036137;28;20467;-73
2022/11/07 00:26:38;;;;;;;4.78;2.90;;;10.80;99.90;;;;;;5046163;28;19971;-71
2022/11/07 00:29:04;;;;;;;7.80;2.92;;;10.80;99.90;;;;;;5061824;28;20060;-75
2022/11/07 00:31:30;;;;;;;;;;;10.80;99.90;;;;;;5048317;28;20053;-73
2022/11/07 00:33:56;;;;;;;7.63;2.90;;;10.90;99.90;;;;;;5048936;28;20011;-72
2022/11/07 00:36:27;;;;;;;11.27;3.13;;;10.80;99.90;;;;;;5040141;28;20239;-72
2022/11/07 00:38:53;;;;;;;8.60;2.80;;;10.90;99.90;;;;;;5049615;28;20533;-71
2022/11/07 00:41:20;;;;;;;5.40;2.72;;;10.90;99.90;;;;;;5048040;28;20048;-71
2022/11/07 00:43:46;;;;;;;6.88;2.17;;;10.90;99.90;;;;;;5034419;28;20049;-73
2022/11/07 00:46:13;;;;;;;7.75;2.30;;;10.90;99.90;;;;;;5025858;28;20064;-75
2022/11/07 00:48:39;;;;;;;9.10;2.40;;;11.00;99.90;;;;;;5040030;28;20110;-75
2022/11/07 00:51:05;;;;;;;7.05;3.33;;;11.00;99.90;;;;;;5037469;28;20120;-75
2022/11/07 00:53:31;;;;;;;5.05;2.95;;;11.10;99.90;;;;;;5034613;28;20048;-72
2022/11/07 00:56:05;;;;;;;6.43;2.70;;;11.10;99.90;;;;;;5040823;28;20390;-72
2022/11/07 00:58:31;;;;;;;9.10;3.08;;;11.10;99.90;;;;;;5038745;28;20052;-72
2022/11/07 01:00:57;;;;;;;10.02;2.55;;;11.10;99.90;;;;;;5042480;28;20073;-72
2022/11/07 01:06:21;;;;;;;6.60;2.90;;;11.00;99.90;;;;;;4985155;28;20498;-72
2022/11/07 01:08:47;;;;;;;8.82;3.08;;;11.00;99.90;;;;;;5029443;28;20045;-72
2022/11/07 01:11:13;;;;;;;5.50;2.55;;;10.90;99.90;;;;;;5032217;28;20037;-72
2022/11/07 01:13:39;;;;;;;5.60;2.40;;;10.90;99.90;;;;;;5039447;28;20110;-73
2022/11/07 01:16:07;;;;;;;7.97;2.83;;;10.80;99.90;;;;;;5029073;28;20119;-73
2022/11/07 01:18:33;;;;;;;14.55;3.30;;;10.80;99.90;;;;;;5031755;28;20670;-72
2022/11/07 01:21:02;;;;;;;4.88;2.30;;;10.70;99.90;;;;;;5043836;28;20135;-72
2022/11/07 01:23:27;;;;;;;9.10;3.75;;;10.70;99.90;;;;;;5028884;28;20050;-72
2022/11/07 01:25:53;;;;;;;7.28;2.63;;;10.70;99.90;;;;;;5029264;28;20111;-72
2022/11/07 01:28:19;;;;;;;10.32;3.38;;;10.60;99.90;;;;;;5044070;28;20041;-71
2022/11/07 01:30:45;;;;;;;4.65;2.60;;;10.60;99.90;;;;;;5029018;28;20050;-72
2022/11/07 01:33:11;;;;;;;11.45;4.53;;;10.60;99.90;;;;;;5029051;28;20093;-75
2022/11/07 01:35:38;;;;;;;8.07;3.05;;;10.60;99.90;;;;;;5032590;28;20053;-72
2022/11/07 01:38:04;;;;;;;8.07;2.75;;;10.70;99.90;;;;;;5035201;28;20073;-72
2022/11/07 01:40:32;;;;;;;6.63;2.55;;;10.70;99.90;;;;;;5028568;28;20050;-72
2022/11/07 01:42:58;;;;;;;7.25;2.58;;;10.80;99.90;;;;;;5028343;28;20088;-72
2022/11/07 01:45:29;;;;;;;10.43;2.50;;;10.80;99.90;;;;;;5027959;28;20045;-73
2022/11/07 01:47:59;;;;;;;8.07;2.75;;;10.80;99.90;;;;;;5032856;28;20049;-72
2022/11/07 01:50:26;;;;;;;8.13;2.58;;;10.90;99.90;;;;;;5037459;28;20137;-73
2022/11/07 01:52:52;;;;;;;;;;;11.00;99.90;;;;;;5048460;28;20102;-74
2022/11/07 01:55:26;;;;;;;8.30;2.80;;;11.00;99.90;;;;;;5048427;28;19925;-73
2022/11/07 01:58:04;;;;;;;8.45;2.67;;;11.00;99.90;;;;;;5048997;28;20045;-74
2022/11/07 02:00:31;;;;;;;5.28;2.28;;;11.00;99.90;;;;;;5046563;28;20052;-72
2022/11/07 02:03:06;;;;;;;8.60;2.40;;;11.10;99.90;;;;;;5048661;28;20055;-74
2022/11/07 02:05:59;;;;;;;6.05;2.72;;;11.10;99.90;;;;;;5048934;28;20037;-73
2022/11/07 02:08:26;;;;;;;6.25;2.30;;;11.20;99.90;;;;;;5033643;28;20049;-72
2022/11/07 02:10:53;;;;;;;5.82;2.60;;;11.20;99.90;;;;;;5031892;28;20045;-72
2022/11/07 02:13:27;;;;;;;8.75;2.17;;;11.20;99.90;;;;;;5064596;28;20064;-72
2022/11/07 02:15:53;;;;;;;10.82;3.40;;;11.20;99.90;;;;;;5031204;28;20056;-72
2022/11/07 02:18:20;;;;;;;13.13;3.08;;;11.20;99.90;;;;;;5032476;28;20045;-72
2022/11/07 02:20:46;;;;;;;13.25;2.83;;;11.20;99.90;;;;;;5034512;28;20048;-72
2022/11/07 02:23:44;;;;;;;8.55;3.15;;;11.10;99.90;;;;;;5050904;28;20115;-75
2022/11/07 02:26:10;;;;;;;11.25;3.00;;;11.10;99.90;;;;;;5029262;28;20526;-72
2022/11/07 02:28:38;;;;;;;8.77;2.40;;;11.10;99.90;;;;;;5032006;28;20037;-73
2022/11/07 02:31:04;;;;;;;12.15;2.53;;;11.10;99.90;;;;;;5032103;28;20059;-72
2022/11/07 02:33:30;;;;;;;6.32;2.60;;;11.10;99.90;;;;;;5034889;28;20120;-72
2022/11/07 02:35:56;;;;;;;7.03;2.75;;;11.10;99.90;;;;;;5050208;28;20170;-71
2022/11/07 02:38:26;;;;;;;4.10;2.45;;;11.20;99.90;;;;;;5051556;28;20065;-72
2022/11/07 02:41:03;;;;;;;6.07;2.72;;;11.20;99.90;;;;;;5039069;28;20133;-75
2022/11/07 02:43:31;;;;;;;9.77;2.75;;;11.10;99.90;;;;;;5031793;28;20110;-72
2022/11/07 02:46:01;;;;;;;10.20;3.22;;;11.10;99.90;;;;;;5032232;28;20110;-72
2022/11/07 02:48:29;;;;;;;6.22;2.78;;;11.10;99.90;;;;;;5031721;28;20088;-72
2022/11/07 02:50:54;;;;;;;7.47;3.20;;;11.20;99.90;;;;;;5030457;28;20052;-72
2022/11/07 02:53:20;;;;;;;8.13;2.70;;;11.10;99.90;;;;;;5050033;28;20045;-74
2022/11/07 02:55:45;;;;;;;7.20;2.55;;;11.20;99.90;;;;;;5051262;28;20045;-72
2022/11/07 02:58:11;;;;;;;7.72;2.40;;;11.20;99.90;;;;;;5052673;28;20483;-72
2022/11/07 03:00:37;;;;;;;5.80;2.47;;;11.20;99.90;;;;;;5051369;28;20562;-72
2022/11/07 03:03:02;;;;;;;6.10;2.53;;;11.10;99.90;;;;;;5033730;28;20079;-72
2022/11/07 03:05:28;;;;;;;10.80;3.33;;;11.10;99.90;;;;;;5049467;28;20056;-73
2022/11/07 03:07:54;;;;;;;10.57;2.78;;;11.10;99.90;;;;;;5047014;28;20041;-72
2022/11/07 03:10:19;;;;;;;5.93;2.65;;;11.10;99.90;;;;;;5034131;28;20080;-76
2022/11/07 03:12:45;;;;;;;10.48;2.80;;;11.10;99.90;;;;;;5032322;28;20045;-72
2022/11/07 03:15:12;;;;;;;8.45;3.35;;;11.10;99.90;;;;;;5031831;28;20633;-71
2022/11/07 03:17:38;;;;;;;7.63;3.53;;;11.10;99.90;;;;;;5031662;28;20664;-72
2022/11/07 03:20:04;;;;;;;10.40;2.33;;;11.10;99.90;;;;;;5029047;28;20088;-72
2022/11/07 03:22:30;;;;;;;18.05;3.85;;;11.10;99.90;;;;;;5030345;28;20081;-72
2022/11/07 03:24:55;;;;;;;7.75;2.53;;;11.10;99.90;;;;;;5033080;28;20114;-71
2022/11/07 03:27:21;;;;;;;9.38;2.83;;;11.10;99.90;;;;;;5031775;28;20053;-75
2022/11/07 03:29:47;;;;;;;5.72;2.58;;;11.10;99.90;;;;;;5037560;28;20038;-71
2022/11/07 03:32:12;;;;;;;6.32;2.80;;;11.10;99.90;;;;;;5032082;28;20048;-72
2022/11/07 03:34:38;;;;;;;11.40;2.97;;;11.00;99.90;;;;;;5028981;28;20049;-73
2022/11/07 03:37:04;;;;;;;3.72;2.42;;;11.00;99.90;;;;;;5048124;28;20053;-74
2022/11/07 03:39:29;;;;;;;7.93;2.75;;;11.00;99.90;;;;;;5031332;28;20136;-72
2022/11/07 03:41:55;;;;;;;8.82;3.03;;;11.00;99.90;;;;;;5031896;28;20049;-72
2022/11/07 03:44:21;;;;;;;5.97;2.70;;;11.00;99.90;;;;;;5031238;28;20541;-75
2022/11/07 03:46:46;;;;;;;8.38;2.13;;;10.90;99.90;;;;;;5038821;28;20045;-72
2022/11/07 03:49:12;;;;;;;17.02;2.92;;;11.00;99.90;;;;;;5049654;28;20588;-72
2022/11/07 03:51:38;;;;;;;6.50;2.28;;;10.90;99.90;;;;;;5049992;28;20136;-72
2022/11/07 03:54:04;;;;;;;7.50;2.60;;;11.00;99.90;;;;;;5049418;28;20055;-72
2022/11/07 03:56:29;;;;;;;9.95;2.70;;;11.00;99.90;;;;;;5050755;28;20111;-72
2022/11/07 03:58:55;;;;;;;7.65;2.75;;;11.00;99.90;;;;;;5047494;28;20436;-72
2022/11/07 04:01:21;;;;;;;11.35;3.47;;;11.00;99.90;;;;;;5031210;28;20549;-75
2022/11/07 04:03:46;;;;;;;3.75;2.10;;;11.00;99.90;;;;;;5030734;28;20104;-72
2022/11/07 04:06:12;;;;;;;7.30;2.50;;;11.00;99.90;;;;;;5029443;28;20487;-72
2022/11/07 04:08:38;;;;;;;6.22;2.15;;;11.00;99.90;;;;;;5050650;28;20482;-72
2022/11/07 04:11:04;;;;;;;10.73;2.70;;;11.00;99.90;;;;;;5051313;28;20061;-72
2022/11/07 04:19:00;;;;;;;6.10;2.45;;;11.00;99.90;;;;;;5050079;28;20102;-72
2022/11/07 04:21:26;;;;;;;12.07;2.95;;;11.10;99.90;;;;;;5049527;28;20053;-75
2022/11/07 04:23:51;;;;;;;6.93;2.45;;;11.10;99.90;;;;;;5049571;28;20466;-74
2022/11/07 04:29:01;;;;;;;12.20;3.38;;;11.10;99.90;;;;;;5044055;28;20044;-71
2022/11/07 04:31:27;;;;;;;6.50;2.40;;;11.10;99.90;;;;;;5030759;28;20049;-75
2022/11/07 04:33:52;;;;;;;9.25;2.70;;;11.10;99.90;;;;;;5044701;28;20045;-75
2022/11/07 04:36:18;;;;;;;10.00;2.15;;;11.00;99.90;;;;;;5049697;28;20045;-72
2022/11/07 04:38:44;;;;;;;8.55;2.88;;;11.10;99.90;;;;;;5049712;28;20048;-73
2022/11/07 04:41:22;;;;;;;10.80;3.00;;;11.00;99.90;;;;;;5050618;28;20155;-72
2022/11/07 04:43:48;;;;;;;11.35;2.80;;;11.10;99.90;;;;;;5048719;28;20045;-75
2022/11/07 04:46:15;;;;;;;11.23;2.72;;;11.20;99.90;;;;;;5033405;28;20068;-72
2022/11/07 04:48:41;;;;;;;7.43;2.25;;;11.20;99.90;;;;;;5030003;28;20095;-72
2022/11/07 04:51:12;;;;;;;8.52;2.95;;;11.10;99.90;;;;;;5033421;28;20441;-72
2022/11/07 04:53:38;;;;;;;8.45;2.95;;;11.20;99.90;;;;;;5048638;28;20601;-71
2022/11/07 04:56:04;;;;;;;8.45;2.97;;;11.30;99.90;;;;;;5050370;28;20056;-72
2022/11/07 04:58:29;;;;;;;12.15;2.83;;;11.30;99.90;;;;;;5032002;28;20041;-75
2022/11/07 05:00:55;;;;;;;8.73;2.90;;;11.30;99.90;;;;;;5029889;28;20052;-73
2022/11/07 05:03:21;;;;;;;6.63;2.95;;;11.20;99.90;;;;;;5029325;28;20048;-72
2022/11/07 05:05:46;;;;;;;11.60;2.83;;;11.20;99.90;;;;;;5027637;28;20124;-74
2022/11/07 05:08:12;;;;;;;12.85;3.90;;;11.20;99.90;;;;;;5042773;28;20045;-71
2022/11/07 05:10:38;;;;;;;7.10;2.90;;;11.10;99.90;;;;;;5062643;28;20124;-72
2022/11/07 05:13:03;;;;;;;13.07;3.08;;;11.10;99.90;;;;;;5030451;28;20053;-71
2022/11/07 05:15:29;;;;;;;13.93;3.38;;;11.00;99.90;;;;;;5029628;28;20080;-75
2022/11/07 05:17:54;;;;;;;6.88;2.80;;;11.00;99.90;;;;;;5030111;28;20490;-72
2022/11/07 05:20:30;;;;;;;7.72;3.08;;;11.00;99.90;;;;;;5060439;28;20471;-71
2022/11/07 05:23:11;;;;;;;7.50;2.97;;;11.10;99.90;;;;;;5030219;28;20115;-72
2022/11/07 05:25:49;;;;;;;7.95;3.42;;;11.10;99.90;;;;;;5047942;28;20136;-73
2022/11/07 05:28:20;;;;;;;10.60;2.75;;;11.20;99.90;;;;;;5048382;28;20045;-71
2022/11/07 05:30:46;;;;;;;10.88;3.33;;;11.20;99.90;;;;;;5049174;28;20099;-72
2022/11/07 05:33:14;;;;;;;9.30;3.05;;;11.20;99.90;;;;;;5025268;28;20041;-72
2022/11/07 05:35:41;;;;;;;8.27;3.22;;;11.20;99.90;;;;;;5030937;28;20060;-75
2022/11/07 05:38:07;;;;;;;8.05;2.42;;;11.20;99.90;;;;;;5085754;28;20056;-74
2022/11/07 05:40:37;;;;;;;6.18;2.88;;;11.20;99.90;;;;;;5042994;28;20103;-76
2022/11/07 05:43:05;;;;;;;8.02;2.88;;;11.20;99.90;;;;;;5053519;28;20045;-73
2022/11/07 05:45:32;;;;;;;6.97;2.38;;;11.20;99.90;;;;;;5052144;28;20497;-75
2022/11/07 05:48:01;;;;;;;10.07;3.42;;;11.20;99.90;;;;;;5053765;28;20049;-74
2022/11/07 05:50:28;;;;;;;8.18;3.05;;;11.10;99.90;;;;;;5051416;28;20088;-72
2022/11/07 05:52:55;;;;;;;10.23;2.92;;;11.20;99.90;;;;;;5053392;28;20337;-72
2022/11/07 05:55:21;;;;;;;10.43;3.10;;;11.10;99.90;;;;;;5050283;28;20053;-72
2022/11/07 05:57:47;;;;;;;9.15;3.20;;;11.10;99.90;;;;;;5052783;28;20479;-73
2022/11/07 06:00:13;;;;;;;;;;;11.10;99.90;;;;;;5034341;28;20537;-74
2022/11/07 06:02:39;;;;;;;10.85;3.30;;;11.10;99.90;;;;;;5050362;28;19924;-73
2022/11/07 06:05:05;;;;;;;9.07;3.13;;;11.10;99.90;;;;;;5040209;28;20096;-73
2022/11/07 06:07:34;;;;;;;;;;;11.10;99.90;;;;;;5036228;28;20102;-76
2022/11/07 06:10:00;;;;;;;13.63;3.22;;;11.10;99.90;;;;;;5043930;28;19921;-74
2022/11/07 06:12:25;;;;;;;10.50;2.80;;;11.20;99.90;;;;;;5033392;28;20056;-73
2022/11/07 06:14:51;;;;;;;10.95;2.50;;;11.10;99.90;;;;;;5037752;28;20552;-72
2022/11/07 06:17:17;;;;;;;12.43;3.00;;;11.20;99.90;;;;;;5050876;28;20075;-73
2022/11/07 06:19:43;;;;;;;10.05;3.20;;;11.20;99.90;;;;;;5049590;28;20061;-73
2022/11/07 06:22:08;;;;;;;6.40;2.30;;;11.20;99.90;;;;;;5036322;28;20124;-73
2022/11/07 06:24:34;;;;;;;10.07;3.15;;;11.20;99.90;;;;;;5032817;28;20049;-76
2022/11/07 06:27:00;;;;;;;8.80;2.75;;;11.20;99.90;;;;;;5041101;28;20560;-73
2022/11/07 06:29:25;;;;;;;11.38;2.97;;;11.20;99.90;;;;;;5052632;28;20048;-75
2022/11/07 06:31:51;;;;;;;8.65;3.13;;;11.20;99.90;;;;;;5051192;28;20148;-73
2022/11/07 06:34:17;;;;;;;9.52;3.35;;;11.20;99.90;;;;;;5051554;28;20045;-73
2022/11/07 06:36:42;;;;;;;6.65;3.05;;;11.20;99.90;;;;;;5051389;28;20048;-74
2022/11/07 06:39:09;;;;;;;11.70;3.20;;;11.20;99.90;;;;;;5051368;28;20053;-72
2022/11/07 06:41:34;;;;;;;12.52;3.17;;;11.20;99.90;;;;;;5040129;28;20041;-76
2022/11/07 06:44:00;;;;;;;13.38;3.83;;;11.20;99.90;;;;;;5032474;28;20399;-74
2022/11/07 06:46:26;;;;;;;11.55;3.53;;;11.20;99.90;;;;;;5047410;28;20053;-73
2022/11/07 06:48:51;;;;;;;8.60;2.88;;;11.20;99.90;;;;;;5031169;28;20188;-76
2022/11/07 06:51:17;;;;;;;10.38;3.05;;;11.20;99.90;;;;;;5031542;28;20060;-73
2022/11/07 06:53:43;;;;;;;5.88;2.80;;;11.20;99.90;;;;;;5034640;28;20057;-74
2022/11/07 06:56:13;;;;;;;11.23;3.30;;;11.20;99.90;;;;;;5051331;28;20053;-73
2022/11/07 06:58:38;;;;;;;8.20;2.85;;;11.20;99.90;;;;;;5052125;28;20049;-76
2022/11/07 07:01:07;;;;;;;9.27;3.10;;;11.20;99.90;;;;;;5051940;28;20059;-73
2022/11/07 07:03:33;;;;;;;12.07;3.05;;;11.30;99.90;;;;;;5044872;28;20533;-73
2022/11/07 07:06:04;;;;;;;8.75;2.75;;;11.20;99.90;;;;;;5047299;28;20045;-73
2022/11/07 07:08:30;;;;;;;9.27;3.10;;;11.30;99.90;;;;;;5052380;28;20150;-72
2022/11/07 07:11:00;;;;;;;10.18;3.53;;;11.30;99.90;;;;;;5051803;28;20055;-73
2022/11/07 07:13:25;;;;;;;7.30;2.78;;;11.20;99.90;;;;;;5052362;28;20131;-72
2022/11/07 07:15:55;;;;;;;13.88;3.03;;;11.20;99.90;;;;;;5051707;28;20129;-72
2022/11/07 07:18:22;;;;;;;10.23;2.75;;;11.20;99.90;;;;;;5052132;28;20067;-72
2022/11/07 07:20:48;;;;;;;15.48;3.30;;;11.20;99.90;;;;;;5048463;28;20482;-75
2022/11/07 07:23:16;;;;;;;10.90;2.25;;;11.20;99.90;;;;;;5051709;28;20045;-73
2022/11/07 07:25:41;;;;;;;12.35;3.78;;;11.20;99.90;;;;;;5033367;28;20049;-75
2022/11/07 07:28:07;;;;;;;14.02;3.28;;;11.20;99.90;;;;;;5032038;28;20057;-73
2022/11/07 07:30:33;;;;;;;9.05;2.47;;;11.20;99.90;;;;;;5031577;28;20132;-73
2022/11/07 07:32:58;;;;;;;9.00;2.53;;;11.20;99.90;;;;;;5031513;28;20140;-72
2022/11/07 07:35:24;;;;;;;9.15;2.65;;;11.10;99.90;;;;;;5037912;28;20387;-72
2022/11/07 07:37:51;;;;;;;9.15;3.13;;;11.10;99.90;;;;;;5049681;28;20057;-72
2022/11/07 07:40:17;;;;;;;11.60;2.58;;;11.20;99.90;;;;;;5051855;28;20095;-72
2022/11/07 07:42:43;;;;;;;9.65;2.45;;;11.10;99.90;;;;;;5051394;28;20087;-76
2022/11/07 07:45:10;;;;;;;15.50;3.00;;;11.20;99.90;;;;;;5051103;28;20080;-74
2022/11/07 07:47:36;;;;;;;10.15;2.53;;;11.20;99.90;;;;;;5044036;28;20051;-73
2022/11/07 07:50:03;;;;;;;;;;;11.30;99.90;;;;;;5048938;28;20466;-75
2022/11/07 07:52:28;;;;;;;10.15;3.00;;;11.30;99.90;;;;;;5046099;28;19978;-73
2022/11/07 07:54:54;;;;;;;12.75;3.75;;;11.40;99.90;;;;;;5050696;28;20045;-74
2022/11/07 07:57:20;;;;;;;;;;;11.50;99.90;;;;;;5051032;28;20153;-73
2022/11/07 07:59:46;;;;;;;9.38;2.90;;;11.50;99.90;;;;;;5032336;28;20024;-75
2022/11/07 08:02:12;;;;;;;5.22;2.20;;;11.40;99.90;;;;;;5031574;28;20055;-72
2022/11/07 08:04:39;;;;;;;;;;;11.50;99.90;;;;;;5044448;28;20319;-76
2022/11/07 08:07:05;;;;;;;17.13;3.72;;;11.60;99.90;;;;;;5043685;28;19944;-73
2022/11/07 08:09:35;;;;;;;10.30;2.55;;;11.60;99.90;;;;;;5042003;28;20037;-72
2022/11/07 08:12:02;;;;;;;6.63;2.70;;;11.70;99.90;;;;;;5050053;28;20726;-77
2022/11/07 08:14:28;;;;;;;10.85;3.47;;;11.70;99.90;;;;;;5048157;28;20041;-75
2022/11/07 08:16:54;;;;;;;;;;;11.70;99.90;;;;;;5044325;28;20037;-73
2022/11/07 08:19:19;;;;;;;6.18;2.42;;;11.70;99.90;;;;;;5037967;28;20287;-72
2022/11/07 08:21:45;;;;;;;8.75;2.72;;;11.80;99.90;;;;;;5043747;28;20095;-76
2022/11/07 08:24:11;;;;;;;11.32;3.45;;;11.80;99.90;;;;;;5041625;28;20091;-73
2022/11/07 08:26:37;;;;;;;11.80;3.45;;;11.80;99.90;;;;;;5058765;28;20053;-75
2022/11/07 08:29:02;;;;;;;;;;;11.90;99.90;;;;;;5044016;28;20801;-73
2022/11/07 08:31:28;;;;;;;11.88;2.75;;;11.90;99.90;;;;;;5038825;28;19979;-75
2022/11/07 08:33:57;;;;;;;15.93;3.85;;;11.90;99.90;;;;;;5043219;28;20073;-76
2022/11/07 08:36:23;;;;;;;13.48;2.67;;;11.90;99.90;;;;;;5043039;28;20160;-76
2022/11/07 08:38:49;;;;;;;11.77;2.83;;;12.00;99.90;;;;;;5062160;28;20095;-77
2022/11/07 08:41:15;;;;;;;11.80;2.60;;;12.00;99.90;;;;;;5042734;28;20045;-73
2022/11/07 08:43:40;;;;;;;12.77;3.40;;;12.10;99.90;;;;;;5039795;28;20052;-74
2022/11/07 08:46:06;;;;;;;14.48;2.75;;;12.00;99.90;;;;;;5040365;28;20079;-73
2022/11/07 08:48:32;;;;;;;18.42;3.33;;;12.10;99.90;;;;;;5047264;28;20045;-75
2022/11/07 08:50:58;;;;;;;9.52;2.17;;;12.10;99.90;;;;;;5039157;28;20615;-74
2022/11/07 08:53:25;;;;;;;14.82;3.42;;;12.10;99.90;;;;;;5045802;28;20055;-72
2022/11/07 08:55:51;;;;;;;11.88;2.97;;;12.10;99.90;;;;;;5039581;28;20042;-77
2022/11/07 08:58:18;;;;;;;13.43;3.28;;;12.10;99.90;;;;;;5041661;28;20099;-73
2022/11/07 09:00:44;;;;;;;10.40;2.90;;;12.10;99.90;;;;;;5044341;28;20055;-73
2022/11/07 09:03:10;;;;;;;9.23;2.95;;;12.10;99.90;;;;;;5043987;28;20041;-73
2022/11/07 09:05:37;;;;;;;12.27;2.90;;;12.20;99.90;;;;;;5060331;28;20046;-73
2022/11/07 09:08:03;;;;;;;10.48;2.63;;;12.20;99.90;;;;;;5044204;28;20045;-73
2022/11/07 09:10:29;;;;;;;13.85;3.17;;;12.20;99.90;;;;;;5043397;28;20037;-73
2022/11/07 09:12:54;;;;;;;7.78;2.08;;;12.20;99.90;;;;;;5039171;28;20047;-74
2022/11/07 09:15:20;;;;;;;6.22;2.20;;;12.30;99.90;;;;;;5044508;28;20135;-74
2022/11/07 09:17:46;;;;;;;10.18;2.30;;;12.30;99.90;;;;;;5039884;28;20071;-73
2022/11/07 09:20:13;;;;;;;;;;;12.40;99.90;;;;;;5044133;28;20045;-74
2022/11/07 09:22:39;;;;;;;7.63;2.37;;;12.40;99.90;;;;;;5041056;28;20530;-73
2022/11/07 09:25:05;;;;;;;7.28;1.95;;;12.40;99.90;;;;;;5048461;28;20313;-73
2022/11/07 09:27:31;;;;;;;8.77;2.38;;;12.40;99.90;;;;;;5047955;28;20072;-77
2022/11/07 09:29:56;;;;;;;10.32;2.65;;;12.50;99.90;;;;;;5046973;28;20077;-73
2022/11/07 09:32:22;;;;;;;7.88;2.63;;;12.60;99.90;;;;;;5032732;28;20045;-75
2022/11/07 09:34:48;;;;;;;8.30;2.20;;;12.70;99.90;;;;;;5041068;28;20052;-75
2022/11/07 09:37:13;;;;;;;9.60;2.72;;;12.80;99.90;;;;;;5028681;28;20149;-73
2022/11/07 09:39:39;;;;;;;12.02;2.63;;;12.90;99.90;;;;;;5029707;28;20048;-73
2022/11/07 09:42:09;;;;;;;6.25;2.75;;;13.00;99.90;;;;;;5028892;28;20575;-73
2022/11/07 09:44:50;;;;;;;9.88;2.20;;;13.00;99.90;;;;;;5035847;28;20037;-73
2022/11/07 09:47:21;;;;;;;5.68;1.92;;;13.00;99.90;;;;;;5036461;28;20099;-73
2022/11/07 09:49:51;;;;;;;8.07;2.30;;;13.00;99.90;;;;;;5046672;28;20079;-73
2022/11/07 09:52:39;;;;;;;12.27;2.70;;;13.00;99.90;;;;;;5035052;28;20060;-73
2022/11/07 09:55:23;;;;;;;12.50;2.85;;;13.00;99.90;;;;;;5039460;28;20077;-73
2022/11/07 09:57:54;;;;;;;11.20;2.50;;;13.00;99.90;;;;;;5041393;28;20048;-73
2022/11/07 10:00:21;;;;;;;7.82;2.15;;;13.00;99.90;;;;;;5029241;28;20034;-77
2022/11/07 10:02:51;;;;;;;14.82;2.30;;;12.90;99.90;;;;;;5044025;28;20064;-73
2022/11/07 10:05:48;;;;;;;7.25;2.28;;;12.90;99.90;;;;;;5037081;28;20484;-73
2022/11/07 10:08:41;;;;;;;7.70;2.30;;;12.90;99.90;;;;;;5039120;28;20664;-73
2022/11/07 10:11:12;;;;;;;8.02;2.40;;;12.90;99.90;;;;;;5039801;28;20048;-73
2022/11/07 10:14:07;;;;;;;11.70;2.70;;;12.90;99.90;;;;;;5036397;28;20053;-74
2022/11/07 10:17:02;;;;;;;9.40;2.50;;;12.90;99.90;;;;;;5018076;28;20050;-72
2022/11/07 10:19:56;;;;;;;10.75;2.17;;;12.90;99.90;;;;;;5032019;28;20056;-73
2022/11/07 10:22:49;;;;;;;7.80;2.63;;;12.90;99.90;;;;;;5051830;28;20052;-73
2022/11/07 10:25:26;;;;;;;10.05;2.50;;;13.00;99.90;;;;;;5034607;28;20498;-72
2022/11/07 10:28:14;;;;;;;9.23;2.33;;;13.10;99.90;;;;;;5031940;28;20050;-72
2022/11/07 10:30:49;;;;;;;8.38;2.60;;;13.20;99.90;;;;;;5032178;28;20053;-72
2022/11/07 10:33:20;;;;;;;9.75;2.33;;;13.30;99.90;;;;;;5039497;28;20120;-73
2022/11/07 10:35:54;;;;;;;8.77;2.45;;;13.40;99.90;;;;;;5049681;28;20037;-73
2022/11/07 10:38:29;;;;;;;9.32;2.05;;;13.50;99.90;;;;;;5050872;28;20128;-74
2022/11/07 10:40:55;;;;;;;7.20;1.83;;;13.60;99.90;;;;;;5047267;28;20107;-75
2022/11/07 10:43:33;;;;;;;16.98;2.45;;;13.60;99.90;;;;;;5046473;28;20055;-72
2022/11/07 10:46:02;;;;;;;14.30;1.90;;;13.70;99.90;;;;;;5081813;28;20053;-75
2022/11/07 10:48:28;;;;;;;9.57;2.05;;;13.70;99.90;;;;;;5042208;28;20061;-72
2022/11/07 10:50:54;;;;;;;;;;;13.80;99.90;;;;;;5036872;28;20394;-73
2022/11/07 10:53:22;;;;;;;8.23;2.30;;;14.00;99.90;;;;;;5039139;28;19921;-73
2022/11/07 10:55:50;;;;;;;11.68;1.65;;;14.10;99.90;;;;;;5032645;28;20037;-73
2022/11/07 10:58:23;;;;;;;8.48;2.40;;;14.20;99.90;;;;;;5078079;28;20052;-73
2022/11/07 11:01:06;;;;;;;10.90;2.47;;;14.20;99.90;;;;;;5032120;28;20128;-72
2022/11/07 11:03:47;;;;;;;7.93;2.42;;;14.20;99.90;;;;;;5037230;28;20041;-74
2022/11/07 11:06:16;;;;;;;13.25;3.95;;;14.20;99.90;;;;;;5029832;28;20048;-72
2022/11/07 11:08:41;;;;;;;9.73;2.13;;;14.20;99.90;;;;;;5077914;28;20509;-73
2022/11/07 11:11:34;;;;;;;9.02;2.80;;;14.20;99.90;;;;;;5032507;28;20049;-71
2022/11/07 11:14:20;;;;;;;16.15;2.25;;;14.40;99.90;;;;;;5030476;28;20099;-75
2022/11/07 11:16:53;;;;;;;8.13;2.30;;;14.40;99.90;;;;;;5033920;28;20061;-72
2022/11/07 11:19:29;;;;;;;9.80;2.40;;;14.40;99.90;;;;;;5030218;28;20041;-72
2022/11/07 11:21:57;;;;;;;12.40;2.80;;;14.30;99.90;;;;;;5038191;28;20064;-72
2022/11/07 11:24:29;;;;;;;11.48;2.72;;;14.20;99.90;;;;;;5035364;28;20106;-72
2022/11/07 11:26:58;;;;;;;7.97;2.08;;;14.10;99.90;;;;;;5032035;28;20098;-72
2022/11/07 11:29:42;;;;;;;4.70;2.30;;;14.00;99.90;;;;;;5032077;28;20085;-71
2022/11/07 11:32:22;;;;;;;11.52;2.67;;;14.00;99.90;;;;;;5041388;28;20427;-72
2022/11/07 11:34:52;;;;;;;7.38;2.25;;;14.00;99.90;;;;;;5032579;28;20044;-72
2022/11/07 11:37:20;;;;;;;7.70;2.15;;;13.90;99.90;;;;;;5049580;28;20483;-71
2022/11/07 11:40:11;;;;;;;6.45;2.42;;;14.00;99.90;;;;;;5037710;28;20088;-74
2022/11/07 11:42:52;;;;;;;5.18;1.80;;;14.00;99.90;;;;;;5036995;28;20494;-72
2022/11/07 11:45:40;;;;;;;8.52;2.30;;;14.00;99.90;;;;;;5048937;28;20080;-72
2022/11/07 11:48:18;;;;;;;10.07;2.47;;;14.10;99.90;;;;;;5050180;28;20051;-72
2022/11/07 11:50:48;;;;;;;6.57;2.00;;;14.10;99.90;;;;;;5033107;28;20038;-72
2022/11/07 11:53:20;;;;;;;11.57;2.22;;;14.10;99.90;;;;;;5036379;28;20218;-72
2022/11/07 11:55:58;;;;;;;11.10;2.20;;;14.10;99.90;;;;;;5035137;28;20059;-73
2022/11/07 11:58:47;;;;;;;11.70;2.40;;;14.20;99.90;;;;;;5034534;28;20061;-72
2022/11/07 12:01:48;;;;;;;8.75;2.33;;;14.20;99.90;;;;;;5036729;28;20045;-74
2022/11/07 12:04:38;;;;;;;13.48;3.47;;;14.10;99.90;;;;;;5035747;28;20454;-73
2022/11/07 12:07:16;;;;;;;12.98;2.60;;;14.10;99.90;;;;;;5034241;28;20966;-75
2022/11/07 12:09:47;;;;;;;7.85;2.13;;;14.10;99.90;;;;;;5030589;28;20124;-73
2022/11/07 12:12:27;;;;;;;3.22;1.83;;;14.10;99.90;;;;;;5029823;28;20045;-73
2022/11/07 12:15:20;;;;;;;9.00;1.92;;;14.10;99.90;;;;;;5030299;28;20045;-73
2022/11/07 12:17:54;;;;;;;8.60;2.33;;;14.10;99.90;;;;;;5031043;28;20134;-73
2022/11/07 12:20:23;;;;;;;6.20;2.70;;;14.10;99.90;;;;;;5038811;28;20055;-74
2022/11/07 12:23:01;;;;;;;9.77;2.20;;;14.10;99.90;;;;;;5030595;28;20047;-73
2022/11/07 12:25:36;;;;;;;6.15;2.88;;;14.10;99.90;;;;;;5030225;28;20049;-75
2022/11/07 12:28:26;;;;;;;7.55;2.20;;;14.20;99.90;;;;;;5036404;28;20063;-74
2022/11/07 12:31:03;;;;;;;8.48;1.98;;;14.20;99.90;;;;;;5037496;28;20127;-74
2022/11/07 12:33:34;;;;;;;;;;;14.30;99.90;;;;;;5034456;28;20122;-73
2022/11/07 12:36:38;;;;;;;10.98;2.20;;;14.40;99.90;;;;;;5028290;28;19928;-74
2022/11/07 12:39:32;;;;;;;7.82;2.05;;;14.60;99.90;;;;;;5035074;28;20124;-73
2022/11/07 12:42:04;;;;;;;9.32;2.40;;;14.90;99.90;;;;;;5042067;28;20486;-74
2022/11/07 12:44:33;;;;;;;6.75;2.30;;;15.60;99.90;;;;;;5034910;28;20199;-75
2022/11/07 12:47:06;;;;;;;9.32;2.10;;;15.80;99.90;;;;;;5030834;28;20049;-73
2022/11/07 12:50:00;;;;;;;9.10;2.28;;;15.70;99.90;;;;;;5028182;28;20045;-76
2022/11/07 12:52:43;;;;;;;9.70;2.92;;;15.50;99.90;;;;;;5037585;28;20076;-74
2022/11/07 12:55:22;;;;;;;13.10;3.28;;;15.40;99.90;;;;;;5049467;28;20118;-76
2022/11/07 12:57:51;;;;;;;9.75;2.80;;;15.40;99.90;;;;;;5049912;28;20049;-74
2022/11/07 13:00:23;;;;;;;8.23;2.53;;;15.50;99.90;;;;;;5046137;28;20496;-73
2022/11/07 13:03:15;;;;;;;4.95;2.05;;;15.40;99.90;;;;;;5032177;28;20080;-76
2022/11/07 13:05:53;;;;;;;7.05;2.00;;;15.20;99.90;;;;;;5033427;28;20182;-75
2022/11/07 13:08:23;;;;;;;12.50;2.65;;;14.90;99.90;;;;;;5037017;28;20395;-74
2022/11/07 13:11:08;;;;;;;12.43;3.05;;;14.70;99.90;;;;;;5049048;28;20056;-74
2022/11/07 13:13:36;;;;;;;9.50;2.45;;;14.60;99.90;;;;;;5041880;28;20149;-77